createdAt,value
2023-02-19T00:01:55.892Z,55
2023-02-19T00:06:55.856Z,55.3
2023-02-19T00:11:55.857Z,55.2
2023-02-19T00:16:56.036Z,55.1
2023-02-19T00:21:55.901Z,55.4
2023-02-19T00:26:55.897Z,55.5
2023-02-19T00:31:56.017Z,55.3
2023-02-19T00:36:55.906Z,55.6
2023-02-19T00:41:56.082Z,55.6
2023-02-19T00:46:55.926Z,55.6
2023-02-19T00:51:55.889Z,55.5
2023-02-19T00:56:55.910Z,55.4
2023-02-19T01:01:55.933Z,55.4
2023-02-19T01:06:55.918Z,55.1
2023-02-19T01:11:56.047Z,54.9
2023-02-19T01:16:55.960Z,54.9
2023-02-19T01:21:56.021Z,54.7
2023-02-19T01:26:56.174Z,54.6
2023-02-19T01:31:56.041Z,54.4
2023-02-19T01:36:55.965Z,54.5
2023-02-19T01:41:56.264Z,54.4
2023-02-19T01:46:56.058Z,54.5
2023-02-19T01:51:56.001Z,54.7
2023-02-19T01:56:56.016Z,54.6
2023-02-19T02:01:56.059Z,54.3
2023-02-19T02:06:56.037Z,54
2023-02-19T02:11:56.078Z,53.7
2023-02-19T02:16:56.021Z,53.5
2023-02-19T02:21:56.107Z,53.4
2023-02-19T02:26:56.043Z,53.4
2023-02-19T02:31:56.101Z,53.5
2023-02-19T02:36:56.303Z,53.2
2023-02-19T02:41:56.031Z,53.1
2023-02-19T02:46:56.035Z,53.1
2023-02-19T02:51:56.059Z,52.9
2023-02-19T02:56:56.119Z,52.9
2023-02-19T03:01:56.370Z,53
2023-02-19T03:06:56.105Z,52.9
2023-02-19T03:11:56.081Z,53.1
2023-02-19T03:16:56.177Z,53.1
2023-02-19T03:21:56.999Z,52.9
2023-02-19T03:26:56.488Z,52.9
2023-02-19T03:31:56.430Z,52.8
2023-02-19T03:36:56.357Z,52.2
2023-02-19T03:41:56.560Z,51.8
2023-02-19T03:46:56.344Z,51.7
2023-02-19T03:51:56.356Z,51.7
2023-02-19T03:56:56.351Z,51.9
2023-02-19T04:01:56.486Z,51.7
2023-02-19T04:06:56.345Z,51.5
2023-02-19T04:11:56.355Z,51.8
2023-02-19T04:16:56.688Z,51.7
2023-02-19T04:21:56.493Z,51.9
2023-02-19T04:26:56.704Z,52
2023-02-19T04:31:56.773Z,51.9
2023-02-19T04:36:56.738Z,52
2023-02-19T04:41:56.654Z,51.7
2023-02-19T04:49:12.446Z,51.8
2023-02-19T04:54:12.399Z,51.8
2023-02-19T04:59:12.350Z,51.7
2023-02-19T05:04:12.436Z,51.9
2023-02-19T05:09:12.285Z,52.6
2023-02-19T05:14:12.309Z,52.5
2023-02-19T05:19:12.620Z,52.4
2023-02-19T05:24:12.344Z,52.3
2023-02-19T05:29:12.302Z,52.2
2023-02-19T05:34:12.326Z,52
2023-02-19T05:39:12.341Z,51.9
2023-02-19T05:44:12.353Z,51.9
2023-02-19T05:49:12.332Z,51.9
2023-02-19T05:54:12.319Z,51.9
2023-02-19T05:59:12.318Z,52.1
2023-02-19T06:04:12.381Z,52
2023-02-19T06:09:12.299Z,51.8
2023-02-19T06:14:12.323Z,51.8
2023-02-19T06:19:12.469Z,52
2023-02-19T06:24:12.471Z,52.2
2023-02-19T06:29:12.358Z,52.3
2023-02-19T06:34:12.357Z,52.5
2023-02-19T06:39:12.336Z,52.8
2023-02-19T06:44:12.369Z,52.7
2023-02-19T06:49:12.328Z,52.7
2023-02-19T06:54:12.337Z,52.8
2023-02-19T06:59:12.346Z,53.1
2023-02-19T07:04:12.383Z,53.3
2023-02-19T07:09:12.337Z,53.5
2023-02-19T07:14:12.347Z,53.8
2023-02-19T07:19:12.497Z,54
2023-02-19T07:24:12.350Z,54.4
2023-02-19T07:29:12.331Z,54.6
2023-02-19T07:34:12.331Z,54.6
2023-02-19T07:39:12.323Z,54.8
2023-02-19T07:44:12.505Z,55
2023-02-19T07:49:12.319Z,54.9
2023-02-19T07:54:12.317Z,55.2
2023-02-19T07:59:12.317Z,55.4
2023-02-19T08:04:12.332Z,55.6
2023-02-19T08:09:12.331Z,55.5
2023-02-19T08:14:12.314Z,55.8
2023-02-19T08:19:12.713Z,55.6
2023-02-19T08:24:12.321Z,55.6
2023-02-19T08:29:12.314Z,55.5
2023-02-19T08:34:12.312Z,55.3
2023-02-19T08:39:12.321Z,55.7
2023-02-19T08:44:12.330Z,55.7
2023-02-19T08:49:12.312Z,55.3
2023-02-19T08:54:12.329Z,55.4
2023-02-19T08:59:12.330Z,55.5
2023-02-19T09:04:12.379Z,54.9
2023-02-19T09:09:12.330Z,54.7
2023-02-19T09:14:12.320Z,54.6
2023-02-19T09:19:12.313Z,54.4
2023-02-19T09:24:12.311Z,54.3
2023-02-19T09:29:12.338Z,54.8
2023-02-19T09:34:12.315Z,54.5
2023-02-19T09:39:12.333Z,53.9
2023-02-19T09:44:12.350Z,54.5
2023-02-19T09:49:12.339Z,54.3
2023-02-19T09:54:12.350Z,54.1
2023-02-19T09:59:12.411Z,53.7
2023-02-19T10:04:12.342Z,53.1
2023-02-19T10:09:12.338Z,52.5
2023-02-19T10:14:12.332Z,52.1
2023-02-19T10:19:12.351Z,51.9
2023-02-19T10:24:12.341Z,51.9
2023-02-19T10:29:12.329Z,51.2
2023-02-19T10:34:12.339Z,50.7
2023-02-19T10:39:12.322Z,50.6
2023-02-19T10:44:12.352Z,50.7
2023-02-19T10:49:12.321Z,50.1
2023-02-19T10:54:12.345Z,49.5
2023-02-19T10:59:12.323Z,49.1
2023-02-19T11:04:12.411Z,48.7
2023-02-19T11:09:12.324Z,47.8
2023-02-19T11:14:12.335Z,47.9
2023-02-19T11:19:12.349Z,47.1
2023-02-19T11:24:12.332Z,46.6
2023-02-19T11:29:13.127Z,45.9
2023-02-19T11:34:12.346Z,45.7
2023-02-19T11:39:12.318Z,46
2023-02-19T11:44:12.365Z,45.6
2023-02-19T11:49:12.369Z,44.8
2023-02-19T11:54:12.406Z,44.4
2023-02-19T11:59:12.369Z,43.8
2023-02-19T12:04:12.424Z,43.9
2023-02-19T12:09:12.354Z,43.4
2023-02-19T12:14:12.340Z,42.7
2023-02-19T12:19:12.329Z,43
2023-02-19T12:24:12.422Z,42.9
2023-02-19T12:29:12.330Z,42.6
2023-02-19T12:34:12.368Z,42.3
2023-02-19T12:39:12.402Z,41.8
2023-02-19T12:44:12.535Z,41.7
2023-02-19T12:49:12.411Z,41.1
2023-02-19T12:54:12.411Z,41.2
2023-02-19T12:59:12.427Z,40.5
2023-02-19T13:04:12.412Z,41.2
2023-02-19T13:09:12.425Z,40.5
2023-02-19T13:14:12.406Z,39.9
2023-02-19T13:19:12.408Z,40
2023-02-19T13:24:12.476Z,40.4
2023-02-19T13:29:12.431Z,39.6
2023-02-19T13:34:12.454Z,39.1
2023-02-19T13:39:12.398Z,39.2
2023-02-19T13:44:12.468Z,39.3
2023-02-19T13:49:12.422Z,38.4
2023-02-19T13:54:12.420Z,37.3
2023-02-19T13:59:12.440Z,37.4
2023-02-19T14:04:12.408Z,36.9
2023-02-19T14:09:12.414Z,36.5
2023-02-19T14:14:12.421Z,37.3
2023-02-19T14:19:12.411Z,37.3
2023-02-19T14:24:12.410Z,37.1
2023-02-19T14:29:12.405Z,37.7
2023-02-19T14:34:12.483Z,37.6
2023-02-19T14:39:12.397Z,37.1
2023-02-19T14:44:12.426Z,36.6
2023-02-19T14:49:12.430Z,36.1
2023-02-19T14:54:14.064Z,35.6
2023-02-19T14:59:12.389Z,35.6
2023-02-19T15:04:12.389Z,35.8
2023-02-19T15:09:12.413Z,35.8
2023-02-19T15:14:12.415Z,36
2023-02-19T15:19:12.501Z,36.1
2023-02-19T15:24:12.384Z,36.4
2023-02-19T15:29:12.390Z,36.4
2023-02-19T15:34:12.412Z,36.4
2023-02-19T15:39:12.380Z,36.4
2023-02-19T15:44:12.400Z,33.8
2023-02-19T15:49:12.370Z,32.5
2023-02-19T15:54:12.404Z,32.5
2023-02-19T15:59:12.371Z,32.5
2023-02-19T16:04:13.145Z,32.5
2023-02-19T16:09:12.372Z,31.5
2023-02-19T16:14:12.395Z,31.5
2023-02-19T16:19:12.384Z,31.9
2023-02-19T16:24:12.403Z,31.9
2023-02-19T16:29:12.413Z,32.4
2023-02-19T16:34:12.388Z,32.5
2023-02-19T16:39:12.409Z,33.2
2023-02-19T16:44:12.458Z,33.3
2023-02-19T16:49:12.384Z,33.8
2023-02-19T16:54:12.415Z,34.1
2023-02-19T16:59:12.393Z,34.3
2023-02-19T17:04:12.462Z,34.7
2023-02-19T17:09:12.395Z,34.7
2023-02-19T17:14:12.395Z,34.7
2023-02-19T17:19:12.402Z,34.7
2023-02-19T17:24:12.534Z,34.4
2023-02-19T17:29:12.458Z,34.1
2023-02-19T17:34:12.410Z,33.7
2023-02-19T17:39:12.417Z,33.5
2023-02-19T17:44:12.408Z,33.6
2023-02-19T17:49:12.431Z,34.3
2023-02-19T17:54:12.401Z,34.8
2023-02-19T17:59:12.394Z,35.4
2023-02-19T18:04:12.474Z,35.8
2023-02-19T18:09:12.405Z,36.2
2023-02-19T18:14:12.416Z,36.8
2023-02-19T18:19:12.419Z,37.3
2023-02-19T18:24:12.427Z,37.6
2023-02-19T18:29:12.446Z,37.8
2023-02-19T18:34:12.444Z,38.3
2023-02-19T18:39:12.416Z,38.7
2023-02-19T18:44:12.474Z,39.1
2023-02-19T18:49:12.429Z,39.4
2023-02-19T18:54:12.427Z,39.1
2023-02-19T18:59:12.426Z,39.2
2023-02-19T19:04:12.585Z,39.4
2023-02-19T19:09:12.444Z,39.4
2023-02-19T19:14:12.445Z,38.6
2023-02-19T19:19:12.426Z,38.7
2023-02-19T19:24:12.430Z,39.7
2023-02-19T19:29:12.606Z,38.6
2023-02-19T19:34:12.447Z,38.5
2023-02-19T19:39:12.422Z,38.7
2023-02-19T19:44:12.464Z,39
2023-02-19T19:49:12.444Z,39.4
2023-02-19T19:54:12.457Z,39.7
2023-02-19T19:59:12.456Z,39.9
2023-02-19T20:04:12.457Z,40.1
2023-02-19T20:09:12.454Z,40.3
2023-02-19T20:14:12.480Z,40.8
2023-02-19T20:19:12.481Z,40.4
2023-02-19T20:24:12.450Z,40.6
2023-02-19T20:29:12.672Z,40.1
2023-02-19T20:34:12.446Z,39.5
2023-02-19T20:39:12.475Z,38.4
2023-02-19T20:44:12.503Z,38.4
2023-02-19T20:49:12.486Z,39.4
2023-02-19T20:54:12.462Z,42
2023-02-19T20:59:12.459Z,44.4
2023-02-19T21:04:12.622Z,46.3
2023-02-19T21:09:12.518Z,47.8
2023-02-19T21:14:12.504Z,49.8
2023-02-19T21:19:12.511Z,50.9
2023-02-19T21:24:12.620Z,51.6
2023-02-19T21:29:12.699Z,52.5
2023-02-19T21:34:12.545Z,53.5
2023-02-19T21:39:12.527Z,54.1
2023-02-19T21:44:12.566Z,54.7
2023-02-19T21:49:12.510Z,55.3
2023-02-19T21:54:12.557Z,55.9
2023-02-19T21:59:12.519Z,56.5
2023-02-19T22:04:12.561Z,57
2023-02-19T22:09:12.543Z,57.6
2023-02-19T22:14:12.530Z,57.6
2023-02-19T22:19:12.510Z,58
2023-02-19T22:24:12.542Z,58.2
2023-02-19T22:29:12.536Z,58.6
2023-02-19T22:34:12.533Z,59.1
2023-02-19T22:39:12.526Z,59.4
2023-02-19T22:44:12.547Z,59.3
2023-02-19T22:49:12.514Z,59.9
2023-02-19T22:54:12.506Z,60.4
2023-02-19T22:59:12.509Z,60.4
2023-02-19T23:04:12.575Z,61
2023-02-19T23:09:12.523Z,61.4
2023-02-19T23:14:12.697Z,61.9
2023-02-19T23:19:12.574Z,62.6
2023-02-19T23:24:12.561Z,63.2
2023-02-19T23:29:12.560Z,63.7
2023-02-19T23:34:12.727Z,64.2
2023-02-19T23:39:12.572Z,65
2023-02-19T23:44:12.574Z,65.5
2023-02-19T23:49:12.797Z,66.1
2023-02-19T23:54:12.558Z,66.3
2023-02-19T23:59:12.571Z,67
